Map

Track Data

SID SEASON NUMBER BASIN SUBBASIN NAME ISO_TIME NATURE LAT LON WMO_WIND WMO_PRES WMO_AGENCY TRACK_TYPE DIST2LAND LANDFALL IFLAG USA_AGENCY USA_ATCF_ID USA_LAT USA_LON USA_RECORD USA_STATUS USA_WIND USA_PRES USA_SSHS USA_R34_NE USA_R34_SE USA_R34_SW USA_R34_NW USA_R50_NE USA_R50_SE USA_R50_SW USA_R50_NW USA_R64_NE USA_R64_SE USA_R64_SW USA_R64_NW USA_POCI USA_ROCI USA_RMW USA_EYE TOKYO_LAT TOKYO_LON TOKYO_GRADE TOKYO_WIND TOKYO_PRES TOKYO_R50_DIR TOKYO_R50_LONG TOKYO_R50_SHORT TOKYO_R30_DIR TOKYO_R30_LONG TOKYO_R30_SHORT TOKYO_LAND CMA_LAT CMA_LON CMA_CAT CMA_WIND CMA_PRES HKO_LAT HKO_LON HKO_CAT HKO_WIND HKO_PRES NEWDELHI_LAT NEWDELHI_LON NEWDELHI_GRADE NEWDELHI_WIND NEWDELHI_PRES NEWDELHI_CI NEWDELHI_DP NEWDELHI_POCI REUNION_LAT REUNION_LON REUNION_TYPE REUNION_WIND REUNION_PRES REUNION_TNUM REUNION_CI REUNION_RMW REUNION_R34_NE REUNION_R34_SE REUNION_R34_SW REUNION_R34_NW REUNION_R50_NE REUNION_R50_SE REUNION_R50_SW REUNION_R50_NW REUNION_R64_NE REUNION_R64_SE REUNION_R64_SW REUNION_R64_NW BOM_LAT BOM_LON BOM_TYPE BOM_WIND BOM_PRES BOM_TNUM BOM_CI BOM_RMW BOM_R34_NE BOM_R34_SE BOM_R34_SW BOM_R34_NW BOM_R50_NE BOM_R50_SE BOM_R50_SW BOM_R50_NW BOM_R64_NE BOM_R64_SE BOM_R64_SW BOM_R64_NW BOM_ROCI BOM_POCI BOM_EYE BOM_POS_METHOD BOM_PRES_METHOD NADI_LAT NADI_LON NADI_CAT NADI_WIND NADI_PRES WELLINGTON_LAT WELLINGTON_LON WELLINGTON_WIND WELLINGTON_PRES DS824_LAT DS824_LON DS824_STAGE DS824_WIND DS824_PRES TD9636_LAT TD9636_LON TD9636_STAGE TD9636_WIND TD9636_PRES TD9635_LAT TD9635_LON TD9635_WIND TD9635_PRES TD9635_ROCI NEUMANN_LAT NEUMANN_LON NEUMANN_CLASS NEUMANN_WIND NEUMANN_PRES MLC_LAT MLC_LON MLC_CLASS MLC_WIND MLC_PRES USA_GUST BOM_GUST BOM_GUST_PER REUNION_GUST REUNION_GUST_PER USA_SEAHGT USA_SEARAD_NE USA_SEARAD_SE USA_SEARAD_SW USA_SEARAD_NW STORM_SPEED STORM_DIR
1975111N05132 1975 37 WP MM NOT_NAMED 1975-04-21 00:00:00 TS 4.50000 132.000 main 429 410 __O___________ -1 4.50000 132.000 0 19 1005 21 314
1975111N05132 1975 37 WP MM NOT_NAMED 1975-04-21 03:00:00 TS 5.22276 131.240 main 410 410 __P___________ -1 5.22276 131.240 0 19 1004 21 313
1975111N05132 1975 37 WP MM NOT_NAMED 1975-04-21 06:00:00 TS 5.90000 130.500 main 430 364 __O___________ -1 5.90000 130.500 0 19 1003 19 311
1975111N05132 1975 37 WP MM NOT_NAMED 1975-04-21 09:00:00 TS 6.49472 129.780 main 364 267 __P___________ -1 6.49472 129.780 0 21 1003 19 306
1975111N05132 1975 37 WP MM NOT_NAMED 1975-04-21 12:00:00 TS 7.00000 129.000 main 267 165 __O___________ -1 7.00000 129.000 1 23 1003 20 299
1975111N05132 1975 37 WP MM NOT_NAMED 1975-04-21 15:00:00 TS 7.45264 128.050 main 165 56 __P___________ -1 7.45264 128.050 1 21 1004 21 293
1975111N05132 1975 37 WP MM NOT_NAMED 1975-04-21 18:00:00 TS 7.80000 127.100 main 56 0 __O___________ -1 7.80000 127.100 0 19 1006 18 288
1975111N05132 1975 37 WP MM NOT_NAMED 1975-04-21 21:00:00 TS 8.02986 126.282 main 0 0 __P___________ -1 8.02986 126.282 0 19 1006 13 291
1975111N05132 1975 37 WP MM NOT_NAMED 1975-04-22 00:00:00 TS 8.25000 125.900 main 0 0 O_O______OOO__ jtwc_wp WP021975 8.30000 126.200 20 -1 8.20000 125.600 0 19 1006 8.30000 126.200 TC 20 8.30000 126.200 1 20 8.30000 126.200 20 1008 180 9 305
1975111N05132 1975 37 WP MM NOT_NAMED 1975-04-22 03:00:00 TS 8.53234 125.548 main 0 0 P_P______PPP__ WP021975 8.60007 125.803 20 -1 8.39982 125.047 0 19 1006 8.60007 125.803 TC 20 8.59415 125.783 1 20 8.60007 125.803 20 1008 180 9 309
1975111N05132 1975 37 WP MM NOT_NAMED 1975-04-22 06:00:00 TS 8.82321 125.195 main 0 0 O_O______OPO__ jtwc_wp WP021975 8.90000 125.400 20 -1 8.60000 124.600 0 19 1006 8.90000 125.400 TC 20 8.89047 125.373 1 20 8.90000 125.400 20 1008 180 9 309
1975111N05132 1975 37 WP MM NOT_NAMED 1975-04-22 09:00:00 TS 9.11529 124.819 main 22 22 P_P______PPP__ WP021975 9.19998 124.992 20 -1 8.78501 124.140 0 19 1006 9.19998 124.992 TC 20 9.19153 124.976 1 20 9.19998 124.992 20 1008 180 9 308
1975111N05132 1975 37 WP MM NOT_NAMED 1975-04-22 12:00:00 TS 9.40000 124.440 main 24 0 O_O______OOO__ jtwc_wp WP021975 9.50000 124.600 20 -1 9.00000 123.800 0 19 1006 9.50000 124.600 TC 20 9.50000 124.600 1 20 9.50000 124.600 20 1008 180 9 310
1975111N05132 1975 37 WP MM NOT_NAMED 1975-04-22 15:00:00 TS 9.70286 124.119 main 0 0 P_P______PPP__ WP021975 9.80746 124.235 20 -1 9.27743 123.640 0 19 1006 9.80746 124.235 TC 20 9.81449 124.249 1 20 9.80746 124.235 20 1008 180 8 316
1975111N05132 1975 37 WP MM NOT_NAMED 1975-04-22 18:00:00 TS 10.0035 123.844 main 15 0 O_O______OPO__ jtwc_wp WP021975 10.1000 123.900 20 -1 9.60000 123.600 0 19 1006 10.1000 123.900 TC 20 10.1173 123.920 1 20 10.1000 123.900 20 1008 180 8 319
1975111N05132 1975 37 WP MM NOT_NAMED 1975-04-22 21:00:00 TS 10.2967 123.588 main 0 0 P_P______PPP__ WP021975 10.3799 123.592 20 -1 9.95747 123.555 0 19 1006 10.3799 123.592 TC 20 10.3864 123.606 1 20 10.3799 123.592 20 1008 150 7 318
1975111N05132 1975 37 WP MM NOT_NAMED 1975-04-23 00:00:00 TS 10.5400 123.360 main 0 0 O_O______OOO__ jtwc_wp WP021975 10.6000 123.300 20 -1 10.3000 123.600 0 19 1006 10.6000 123.300 TC 20 10.6000 123.300 1 20 10.6000 123.300 20 1008 120 6 315
1975111N05132 1975 37 WP MM NOT_NAMED 1975-04-23 03:00:00 TS 10.7096 123.161 main 0 0 P_P______PPP__ WP021975 10.7300 123.000 20 -1 10.6176 123.837 0 21 1005 10.7300 123.000 TC 20 10.7406 122.968 1 21 10.7300 123.000 20 1008 120 5 303
1975111N05132 1975 37 WP MM NOT_NAMED 1975-04-23 06:00:00 TS 10.8050 122.949 main 10 0 O_O______OPO__ jtwc_wp WP021975 10.8000 122.700 20 -1 10.8000 124.000 1 23 1005 10.8000 122.700 TC 20 10.8250 122.647 1 22 10.8000 122.700 20 1008 120 5 284
1975111N05132 1975 37 WP MM NOT_NAMED 1975-04-23 09:00:00 TS 10.8289 122.672 main 0 0 P_P______PPP__ WP021975 10.8575 122.377 22 -1 10.6998 123.877 1 21 1005 10.8575 122.377 TC 22 10.8719 122.353 1 23 10.8575 122.377 22 1008 120 6 274
1975111N05132 1975 37 WP MM NOT_NAMED 1975-04-23 12:00:00 TS 10.8400 122.380 main 0 0 O_O______OOO__ jtwc_wp WP021975 10.9000 122.100 25 -1 10.6000 123.500 0 19 1005 10.9000 122.100 TC 25 10.9000 122.100 1 24 10.9000 122.100 24 1008 120 6 281
1975111N05132 1975 37 WP MM NOT_NAMED 1975-04-23 15:00:00 TS 10.9316 122.123 main 0 0 P_P______PPP__ WP021975 10.9574 121.928 22 -1 10.8426 122.918 0 19 1005 10.9574 121.928 TC 22 10.9432 121.915 1 23 10.9574 121.928 22 1008 120 5 289
1975111N05132 1975 37 WP MM NOT_NAMED 1975-04-23 18:00:00 TS 11.0144 121.874 main 15 15 O_O______OPO__ jtwc_wp WP021975 11.0000 121.800 20 -1 11.1000 122.200 0 19 1006 11.0000 121.800 TC 20 10.9722 121.770 1 22 11.0000 121.800 20 1008 120 5 280
1975111N05132 1975 37 WP MM NOT_NAMED 1975-04-23 21:00:00 TS 11.0261 121.594 main 39 39 P_P______PPP__ WP021975 11.0075 121.657 20 -1 11.1179 121.357 0 19 1006 11.0075 121.657 TC 20 10.9901 121.640 1 21 11.0075 121.657 20 1008 120 5 268
1975111N05132 1975 37 WP MM NOT_NAMED 1975-04-24 00:00:00 TS 11.0000 121.360 main 59 59 O_O______OOO__ jtwc_wp WP021975 11.0000 121.500 20 -1 11.0000 120.800 0 19 1006 11.0000 121.500 TC 20 11.0000 121.500 1 20 11.0000 121.500 20 1008 120 3 257
1975111N05132 1975 37 WP MM NOT_NAMED 1975-04-24 03:00:00 TS 10.9501 121.257 main 69 66 P_P______PPP__ WP021975 11.0000 121.308 20 -1 10.7475 121.048 0 19 1005 11.0000 121.308 TC 20 11.0031 121.314 1 20 11.0000 121.308 20 1008 120 2 248
1975111N05132 1975 37 WP MM NOT_NAMED 1975-04-24 06:00:00 TS 10.9200 121.163 main 77 77 O_O______OPO__ jtwc_wp WP021975 11.0000 121.100 20 -1 10.6000 121.400 0 19 1005 11.0000 121.100 TC 20 11.0000 121.115 1 20 11.0000 121.100 20 1008 120 3 274
1975111N05132 1975 37 WP MM NOT_NAMED 1975-04-24 09:00:00 TS 10.9719 120.948 main 111 111 P_P______PPP__ WP021975 10.9925 120.900 20 -1 10.8851 121.133 0 19 1005 10.9925 120.900 TC 20 10.9969 120.908 1 20 10.9925 120.900 20 1007 120 5 285
1975111N05132 1975 37 WP MM NOT_NAMED 1975-04-24 12:00:00 TS 11.0400 120.700 main 120 98 O_O______OOO__ jtwc_wp WP021975 11.0000 120.700 20 -1 11.2000 120.700 0 19 1005 11.0000 120.700 TC 20 11.0000 120.700 1 20 11.0000 120.700 20 1007 120 5 282
1975111N05132 1975 37 WP MM NOT_NAMED 1975-04-24 15:00:00 TS 11.0648 120.491 main 98 77 P_P______PPP__ WP021975 11.0500 120.500 20 -1 11.1524 120.450 0 19 1006 11.0500 120.500 TC 20 11.0218 120.504 1 20 11.0500 120.500 20 1007 120 4 274
1975111N05132 1975 37 WP MM NOT_NAMED 1975-04-24 18:00:00 TS 11.0700 120.282 main 77 55 O_O______OPO__ jtwc_wp WP021975 11.1000 120.300 20 -1 11.0000 120.200 0 19 1007 11.1000 120.300 TC 20 11.0499 120.308 1 20 11.1000 120.300 20 1007 120 4 270
1975111N05132 1975 37 WP MM NOT_NAMED 1975-04-24 21:00:00 TS 11.0656 120.056 main 55 24 P_P______PPP__ WP021975 11.1075 120.100 20 -1 10.9275 119.872 0 19 1007 11.1075 120.100 TC 20 11.0781 120.107 1 20 11.1075 120.100 20 1007 120 5 269
1975111N05132 1975 37 WP MM NOT_NAMED 1975-04-25 00:00:00 TS 11.0600 119.820 main 24 10 O_O______OOO__ jtwc_wp WP021975 11.1000 119.900 20 -1 10.9000 119.500 0 19 1007 11.1000 119.900 TC 20 11.1000 119.900 1 20 11.1000 119.900 20 1007 120 5 270
1975111N05132 1975 37 WP MM NOT_NAMED 1975-04-25 03:00:00 TS 11.0660 119.579 main 10 0 P_P______PPP__ WP021975 11.1000 119.708 20 -1 10.9351 119.078 0 19 1007 11.1000 119.708 TC 20 11.0949 119.694 1 20 11.1000 119.708 20 1007 90 5 272
1975111N05132 1975 37 WP MM NOT_NAMED 1975-04-25 06:00:00 TS 11.0770 119.336 main 10 10 O_O______OPO__ jtwc_wp WP021975 11.1000 119.500 20 -1 11.0000 118.700 0 19 1007 11.1000 119.500 TC 20 11.0849 119.480 1 20 11.1000 119.500 20 1007 60 5 271
1975111N05132 1975 37 WP MM NOT_NAMED 1975-04-25 09:00:00 TS 11.0774 119.105 main 31 31 P_P______PPP__ WP021975 11.0925 119.265 20 -1 11.0274 118.477 0 19 1007 11.0925 119.265 TC 20 11.0824 119.250 1 20 11.0925 119.265 20 1007 60 5 273
1975111N05132 1975 37 WP MM NOT_NAMED 1975-04-25 12:00:00 TS 11.1000 118.860 main 49 49 O_O______OOO__ jtwc_wp WP021975 11.1000 119.000 20 -1 11.1000 118.300 0 19 1007 11.1000 119.000 TC 20 11.1000 119.000 1 20 11.1000 119.000 20 1007 60 5 279
1975111N05132 1975 37 WP MM NOT_NAMED 1975-04-25 15:00:00 TS 11.1624 118.583 main 83 83 P_P______PPP__ WP021975 11.1350 118.707 22 -1 11.2700 118.065 0 19 1007 11.1350 118.707 TC 22 11.1371 118.730 1 21 11.1350 118.707 22 1006 90 6 286
1975111N05132 1975 37 WP MM NOT_NAMED 1975-04-25 18:00:00 TS 11.2595 118.287 main 118 118 O_O______OPO__ jtwc_wp WP021975 11.2000 118.400 25 -1 11.5000 117.800 0 19 1007 11.2000 118.400 TC 25 11.1974 118.437 1 22 11.2000 118.400 25 1006 120 6 290
1975111N05132 1975 37 WP MM NOT_NAMED 1975-04-25 21:00:00 TS 11.3793 117.987 main 152 152 P_P______PPP__ WP021975 11.2849 118.107 25 -1 11.7575 117.485 0 19 1007 11.2849 118.107 TC 25 11.2840 118.126 1 23 11.2849 118.107 25 1005 120 7 294
1975111N05132 1975 37 WP MM NOT_NAMED 1975-04-26 00:00:00 TS 11.5200 117.680 main 187 187 O_O______OOO__ jtwc_wp WP021975 11.4000 117.800 25 -1 12.0000 117.200 0 19 1007 11.4000 117.800 TC 25 11.4000 117.800 1 25 11.4000 117.800 25 1005 120 7 295
1975111N05132 1975 37 WP MM NOT_NAMED 1975-04-26 03:00:00 TS 11.6603 117.369 main 225 225 P_P______PPP__ WP021975 11.5350 117.457 25 -1 12.1499 117.035 0 19 1007 11.5350 117.457 TC 25 11.5464 117.436 1 25 11.5350 117.457 25 1004 120 7 296
1975111N05132 1975 37 WP MM NOT_NAMED 1975-04-26 06:00:00 TS 11.8241 117.053 main 259 259 O_O______OPO__ jtwc_wp WP021975 11.7000 117.100 25 -1 12.3000 116.900 0 19 1007 11.7000 117.100 TC 25 11.7203 117.063 1 25 11.7000 117.100 25 1004 120 7 300
1975111N05132 1975 37 WP MM NOT_NAMED 1975-04-26 09:00:00 TS 12.0258 116.721 main 307 307 P_P______PPP__ WP021975 11.8925 116.728 25 -1 12.5425 116.715 0 19 1007 11.8925 116.728 TC 25 11.9089 116.708 1 25 11.8925 116.728 25 1003 120 7 302
1975111N05132 1975 37 WP MM NOT_NAMED 1975-04-26 12:00:00 TS 12.2105 116.416 main 345 345 O_O______OOO__ jtwc_wp WP021975 12.1000 116.400 25 -1 12.8000 116.500 0 19 1007 12.1000 116.400 TC 25 12.1000 116.400 1 25 12.1000 116.400 25 1003 120 6 303
1975111N05132 1975 37 WP MM NOT_NAMED 1975-04-26 15:00:00 TS 12.3734 116.179 main 373 373 P_P______PPP__ WP021975 12.3074 116.170 25 -1 13.0151 116.258 0 19 1007 12.3074 116.170 TC 25 12.2504 116.166 1 25 12.3074 116.170 25 1003 120 5 307
1975111N05132 1975 37 WP MM NOT_NAMED 1975-04-26 18:00:00 TS 12.5188 115.996 main 397 397 O_O______OPO__ jtwc_wp WP021975 12.5000 116.000 25 -1 13.2000 116.000 0 19 1007 12.5000 116.000 TC 25 12.4047 115.982 1 25 12.5000 116.000 25 1004 120 4 307
1975111N05132 1975 37 WP MM NOT_NAMED 1975-04-26 21:00:00 TS 12.6217 115.840 main 422 422 P________PPP__ WP021975 12.6350 115.842 25 -1 0 12.6350 115.842 TC 25 12.5817 115.832 1 25 12.6350 115.842 25 1005 120 4 314
1975111N05132 1975 37 WP MM NOT_NAMED 1975-04-27 00:00:00 TS 12.8000 115.700 main 440 440 O________OOO__ jtwc_wp WP021975 12.8000 115.700 25 -1 12.8000 115.700 TC 25 12.8000 115.700 1 25 12.8000 115.700 25 1007 120 5 327
1975111N05132 1975 37 WP MM NOT_NAMED 1975-04-27 03:00:00 TS 13.0740 115.545 main 474 474 P________PPP__ WP021975 13.0700 115.543 22 -1 13.0700 115.543 TC 22 13.0859 115.553 1 23 13.0700 115.543 22 120 7 335
1975111N05132 1975 37 WP MM NOT_NAMED 1975-04-27 06:00:00 TS 13.4031 115.405 main 499 499 O________OPO__ jtwc_wp WP021975 13.4000 115.400 20 -1 13.4000 115.400 TC 20 13.4125 115.420 1 22 13.4000 115.400 20 120 7 340
1975111N05132 1975 37 WP MM NOT_NAMED 1975-04-27 09:00:00 TS 13.7519 115.295 main 526 522 P________PPP__ WP021975 13.7500 115.292 20 -1 13.7500 115.292 TC 20 13.7578 115.303 1 21 13.7500 115.292 20 120 7 344
1975111N05132 1975 37 WP MM NOT_NAMED 1975-04-27 12:00:00 TS 14.1000 115.200 main 526 523 O________OOO__ jtwc_wp WP021975 14.1000 115.200 20 -1 14.1000 115.200 TC 20 14.1000 115.200 1 20 14.1000 115.200 20 120 7 344
1975111N05132 1975 37 WP MM NOT_NAMED 1975-04-27 15:00:00 TS 14.4111 115.097 main 525 517 P________PPP__ WP021975 14.4075 115.092 20 -1 14.4075 115.092 TC 20 14.4219 115.112 1 20 14.4075 115.092 20 120 6 343
1975111N05132 1975 37 WP MM NOT_NAMED 1975-04-27 18:00:00 TS 14.7062 115.009 main 524 516 O________OPO__ jtwc_wp WP021975 14.7000 115.000 20 -1 14.7000 115.000 TC 20 14.7250 115.035 1 20 14.7000 115.000 20 120 6 346
1975111N05132 1975 37 WP MM NOT_NAMED 1975-04-27 21:00:00 TS 15.0020 114.946 main 526 520 P________PPP__ WP021975 14.9975 114.940 20 -1 14.9975 114.940 TC 20 15.0156 114.966 1 20 14.9975 114.940 20 120 6 350
1975111N05132 1975 37 WP MM NOT_NAMED 1975-04-28 00:00:00 TS 15.3000 114.900 main 520 O________OOO__ jtwc_wp WP021975 15.3000 114.900 20 -1 15.3000 114.900 TC 20 15.3000 114.900 1 20 15.3000 114.900 20 120 6 351

Digital Typhoon Data and Search

About IBTrACS Database

This database is a web-friendly format of International Best Track Archive for Climate Stewardship (IBTrACS), a global best track data archive curated by NOAA dating back to 1842.

Updated: 2021-11-26